sensor_id;sensor_type;location;lat;lon;timestamp;P1;durP1;ratioP1;P2;durP2;ratioP2
8654;SDS011;13500;52.514;13.462;2023-03-04T00:01:16;37.43;;;18.60;;
8654;SDS011;13500;52.514;13.462;2023-03-04T00:03:43;34.90;;;19.10;;
8654;SDS011;13500;52.514;13.462;2023-03-04T00:06:11;34.80;;;19.60;;
8654;SDS011;13500;52.514;13.462;2023-03-04T00:08:40;34.80;;;18.93;;
8654;SDS011;13500;52.514;13.462;2023-03-04T00:11:08;31.27;;;17.03;;
8654;SDS011;13500;52.514;13.462;2023-03-04T00:13:36;32.83;;;17.97;;
8654;SDS011;13500;52.514;13.462;2023-03-04T00:16:04;33.47;;;19.10;;
8654;SDS011;13500;52.514;13.462;2023-03-04T00:18:32;35.90;;;19.23;;
8654;SDS011;13500;52.514;13.462;2023-03-04T00:21:00;35.87;;;19.13;;
8654;SDS011;13500;52.514;13.462;2023-03-04T00:23:28;33.27;;;20.03;;
8654;SDS011;13500;52.514;13.462;2023-03-04T00:25:58;33.87;;;19.37;;
8654;SDS011;13500;52.514;13.462;2023-03-04T00:28:25;35.40;;;17.97;;
8654;SDS011;13500;52.514;13.462;2023-03-04T00:30:54;32.23;;;18.00;;
8654;SDS011;13500;52.514;13.462;2023-03-04T00:33:22;34.57;;;18.83;;
8654;SDS011;13500;52.514;13.462;2023-03-04T00:35:50;34.57;;;18.93;;
8654;SDS011;13500;52.514;13.462;2023-03-04T00:38:18;31.97;;;18.33;;
8654;SDS011;13500;52.514;13.462;2023-03-04T00:40:46;34.53;;;17.37;;
8654;SDS011;13500;52.514;13.462;2023-03-04T00:43:15;31.47;;;17.07;;
8654;SDS011;13500;52.514;13.462;2023-03-04T00:45:43;30.33;;;16.70;;
8654;SDS011;13500;52.514;13.462;2023-03-04T00:48:12;31.97;;;16.83;;
8654;SDS011;13500;52.514;13.462;2023-03-04T00:50:42;32.53;;;16.83;;
8654;SDS011;13500;52.514;13.462;2023-03-04T00:53:10;27.87;;;14.97;;
8654;SDS011;13500;52.514;13.462;2023-03-04T00:55:37;41.50;;;17.47;;
8654;SDS011;13500;52.514;13.462;2023-03-04T00:58:05;31.90;;;16.40;;
8654;SDS011;13500;52.514;13.462;2023-03-04T01:00:35;31.97;;;14.57;;
8654;SDS011;13500;52.514;13.462;2023-03-04T01:03:02;29.13;;;15.33;;
8654;SDS011;13500;52.514;13.462;2023-03-04T01:05:31;33.33;;;15.10;;
8654;SDS011;13500;52.514;13.462;2023-03-04T01:07:59;30.67;;;14.33;;
8654;SDS011;13500;52.514;13.462;2023-03-04T01:10:27;28.20;;;13.10;;
8654;SDS011;13500;52.514;13.462;2023-03-04T01:12:55;27.73;;;14.23;;
8654;SDS011;13500;52.514;13.462;2023-03-04T01:15:25;27.87;;;13.63;;
8654;SDS011;13500;52.514;13.462;2023-03-04T01:17:54;29.53;;;14.03;;
8654;SDS011;13500;52.514;13.462;2023-03-04T01:20:22;27.13;;;13.87;;
8654;SDS011;13500;52.514;13.462;2023-03-04T01:22:50;26.13;;;14.00;;
8654;SDS011;13500;52.514;13.462;2023-03-04T01:25:18;30.17;;;13.13;;
8654;SDS011;13500;52.514;13.462;2023-03-04T01:27:46;28.70;;;13.70;;
8654;SDS011;13500;52.514;13.462;2023-03-04T01:30:14;24.00;;;11.67;;
8654;SDS011;13500;52.514;13.462;2023-03-04T01:32:42;26.97;;;11.03;;
8654;SDS011;13500;52.514;13.462;2023-03-04T01:35:11;21.77;;;11.40;;
8654;SDS011;13500;52.514;13.462;2023-03-04T01:37:39;26.73;;;11.57;;
8654;SDS011;13500;52.514;13.462;2023-03-04T01:40:07;26.70;;;12.03;;
8654;SDS011;13500;52.514;13.462;2023-03-04T01:42:36;22.70;;;11.60;;
8654;SDS011;13500;52.514;13.462;2023-03-04T01:45:05;24.10;;;10.43;;
8654;SDS011;13500;52.514;13.462;2023-03-04T01:47:34;20.63;;;10.43;;
8654;SDS011;13500;52.514;13.462;2023-03-04T01:50:02;23.00;;;10.63;;
8654;SDS011;13500;52.514;13.462;2023-03-04T01:52:33;26.07;;;10.77;;
8654;SDS011;13500;52.514;13.462;2023-03-04T01:55:01;23.87;;;10.10;;
8654;SDS011;13500;52.514;13.462;2023-03-04T01:57:33;21.27;;;8.80;;
8654;SDS011;13500;52.514;13.462;2023-03-04T02:02:47;23.47;;;8.87;;
8654;SDS011;13500;52.514;13.462;2023-03-04T02:05:17;23.43;;;9.10;;
8654;SDS011;13500;52.514;13.462;2023-03-04T02:07:46;20.63;;;9.33;;
8654;SDS011;13500;52.514;13.462;2023-03-04T02:10:14;21.33;;;8.63;;
8654;SDS011;13500;52.514;13.462;2023-03-04T02:12:42;23.07;;;8.90;;
8654;SDS011;13500;52.514;13.462;2023-03-04T02:15:11;23.03;;;9.50;;
8654;SDS011;13500;52.514;13.462;2023-03-04T02:17:39;16.00;;;7.63;;
8654;SDS011;13500;52.514;13.462;2023-03-04T02:20:11;19.90;;;8.97;;
8654;SDS011;13500;52.514;13.462;2023-03-04T02:22:45;22.50;;;8.70;;
8654;SDS011;13500;52.514;13.462;2023-03-04T02:25:20;20.97;;;8.20;;
8654;SDS011;13500;52.514;13.462;2023-03-04T02:27:52;17.80;;;7.70;;
8654;SDS011;13500;52.514;13.462;2023-03-04T02:30:20;23.63;;;8.87;;
8654;SDS011;13500;52.514;13.462;2023-03-04T02:32:50;17.20;;;7.60;;
8654;SDS011;13500;52.514;13.462;2023-03-04T02:35:19;22.53;;;7.97;;
8654;SDS011;13500;52.514;13.462;2023-03-04T02:37:47;25.37;;;8.30;;
8654;SDS011;13500;52.514;13.462;2023-03-04T02:40:15;17.10;;;7.67;;
8654;SDS011;13500;52.514;13.462;2023-03-04T02:42:48;17.30;;;7.40;;
8654;SDS011;13500;52.514;13.462;2023-03-04T02:45:38;22.40;;;7.77;;
8654;SDS011;13500;52.514;13.462;2023-03-04T02:48:08;22.07;;;7.80;;
8654;SDS011;13500;52.514;13.462;2023-03-04T02:50:40;17.00;;;7.20;;
8654;SDS011;13500;52.514;13.462;2023-03-04T02:53:09;17.07;;;7.37;;
8654;SDS011;13500;52.514;13.462;2023-03-04T02:55:37;18.90;;;6.70;;
8654;SDS011;13500;52.514;13.462;2023-03-04T02:58:05;18.73;;;7.10;;
8654;SDS011;13500;52.514;13.462;2023-03-04T03:00:34;17.80;;;7.00;;
8654;SDS011;13500;52.514;13.462;2023-03-04T03:03:04;14.70;;;6.77;;
8654;SDS011;13500;52.514;13.462;2023-03-04T03:05:35;14.07;;;6.00;;
8654;SDS011;13500;52.514;13.462;2023-03-04T03:08:04;21.07;;;6.73;;
8654;SDS011;13500;52.514;13.462;2023-03-04T03:10:34;20.20;;;7.07;;
8654;SDS011;13500;52.514;13.462;2023-03-04T03:13:04;19.07;;;6.70;;
8654;SDS011;13500;52.514;13.462;2023-03-04T03:15:32;16.00;;;5.37;;
8654;SDS011;13500;52.514;13.462;2023-03-04T03:18:00;17.67;;;7.37;;
8654;SDS011;13500;52.514;13.462;2023-03-04T03:20:29;18.23;;;6.50;;
8654;SDS011;13500;52.514;13.462;2023-03-04T03:22:57;21.80;;;7.00;;
8654;SDS011;13500;52.514;13.462;2023-03-04T03:25:25;17.30;;;6.27;;
8654;SDS011;13500;52.514;13.462;2023-03-04T03:27:53;18.83;;;7.43;;
8654;SDS011;13500;52.514;13.462;2023-03-04T03:30:21;24.27;;;7.37;;
8654;SDS011;13500;52.514;13.462;2023-03-04T03:32:50;20.77;;;7.33;;
8654;SDS011;13500;52.514;13.462;2023-03-04T03:35:18;20.27;;;6.53;;
8654;SDS011;13500;52.514;13.462;2023-03-04T03:37:47;16.40;;;5.93;;
8654;SDS011;13500;52.514;13.462;2023-03-04T03:40:15;18.23;;;6.27;;
8654;SDS011;13500;52.514;13.462;2023-03-04T03:42:43;16.87;;;6.50;;
8654;SDS011;13500;52.514;13.462;2023-03-04T03:45:11;16.40;;;6.17;;
8654;SDS011;13500;52.514;13.462;2023-03-04T03:47:39;21.47;;;5.57;;
8654;SDS011;13500;52.514;13.462;2023-03-04T03:50:07;15.63;;;5.83;;
8654;SDS011;13500;52.514;13.462;2023-03-04T03:52:35;19.07;;;5.73;;
8654;SDS011;13500;52.514;13.462;2023-03-04T03:55:05;14.13;;;5.60;;
8654;SDS011;13500;52.514;13.462;2023-03-04T03:57:33;22.10;;;6.67;;
8654;SDS011;13500;52.514;13.462;2023-03-04T04:00:01;17.13;;;6.07;;
8654;SDS011;13500;52.514;13.462;2023-03-04T04:02:37;20.57;;;5.87;;
8654;SDS011;13500;52.514;13.462;2023-03-04T04:05:06;16.40;;;5.23;;
8654;SDS011;13500;52.514;13.462;2023-03-04T04:07:35;15.90;;;5.17;;
8654;SDS011;13500;52.514;13.462;2023-03-04T04:10:05;22.50;;;5.93;;
8654;SDS011;13500;52.514;13.462;2023-03-04T04:12:33;20.40;;;6.10;;
8654;SDS011;13500;52.514;13.462;2023-03-04T04:15:01;16.50;;;5.57;;
8654;SDS011;13500;52.514;13.462;2023-03-04T04:17:29;14.93;;;5.43;;
8654;SDS011;13500;52.514;13.462;2023-03-04T04:19:57;18.63;;;5.37;;
8654;SDS011;13500;52.514;13.462;2023-03-04T04:22:25;17.63;;;5.20;;
8654;SDS011;13500;52.514;13.462;2023-03-04T04:24:53;15.67;;;6.10;;
8654;SDS011;13500;52.514;13.462;2023-03-04T04:27:22;16.20;;;5.27;;
8654;SDS011;13500;52.514;13.462;2023-03-04T04:29:50;13.93;;;4.80;;
8654;SDS011;13500;52.514;13.462;2023-03-04T04:32:18;14.03;;;5.17;;
8654;SDS011;13500;52.514;13.462;2023-03-04T04:34:46;12.73;;;4.63;;
8654;SDS011;13500;52.514;13.462;2023-03-04T04:37:13;13.63;;;4.77;;
8654;SDS011;13500;52.514;13.462;2023-03-04T04:39:41;16.43;;;5.40;;
8654;SDS011;13500;52.514;13.462;2023-03-04T04:42:09;14.83;;;4.60;;
8654;SDS011;13500;52.514;13.462;2023-03-04T04:44:39;12.80;;;4.90;;
8654;SDS011;13500;52.514;13.462;2023-03-04T04:47:08;18.67;;;5.00;;
8654;SDS011;13500;52.514;13.462;2023-03-04T04:49:36;15.47;;;4.80;;
8654;SDS011;13500;52.514;13.462;2023-03-04T04:52:04;12.83;;;5.30;;
8654;SDS011;13500;52.514;13.462;2023-03-04T04:54:31;11.27;;;4.77;;
8654;SDS011;13500;52.514;13.462;2023-03-04T04:56:59;14.03;;;4.57;;
8654;SDS011;13500;52.514;13.462;2023-03-04T04:59:27;13.57;;;4.13;;
8654;SDS011;13500;52.514;13.462;2023-03-04T05:01:56;14.53;;;4.17;;
8654;SDS011;13500;52.514;13.462;2023-03-04T05:04:24;15.10;;;4.60;;
8654;SDS011;13500;52.514;13.462;2023-03-04T05:06:52;16.97;;;4.83;;
8654;SDS011;13500;52.514;13.462;2023-03-04T05:09:20;13.40;;;4.43;;
8654;SDS011;13500;52.514;13.462;2023-03-04T05:11:48;18.77;;;4.17;;
8654;SDS011;13500;52.514;13.462;2023-03-04T05:14:16;12.63;;;4.67;;
8654;SDS011;13500;52.514;13.462;2023-03-04T05:16:44;12.07;;;4.07;;
8654;SDS011;13500;52.514;13.462;2023-03-04T05:19:13;12.90;;;3.70;;
8654;SDS011;13500;52.514;13.462;2023-03-04T05:21:41;12.47;;;4.03;;
8654;SDS011;13500;52.514;13.462;2023-03-04T05:24:09;14.60;;;4.13;;
8654;SDS011;13500;52.514;13.462;2023-03-04T05:26:36;14.10;;;3.60;;
8654;SDS011;13500;52.514;13.462;2023-03-04T05:29:04;13.63;;;4.13;;
8654;SDS011;13500;52.514;13.462;2023-03-04T05:31:32;9.60;;;4.20;;
8654;SDS011;13500;52.514;13.462;2023-03-04T05:34:00;14.27;;;4.73;;
8654;SDS011;13500;52.514;13.462;2023-03-04T05:36:29;13.07;;;5.00;;
8654;SDS011;13500;52.514;13.462;2023-03-04T05:39:00;15.00;;;4.50;;
8654;SDS011;13500;52.514;13.462;2023-03-04T05:41:28;12.57;;;4.27;;
8654;SDS011;13500;52.514;13.462;2023-03-04T05:43:56;16.33;;;4.83;;
8654;SDS011;13500;52.514;13.462;2023-03-04T05:46:23;17.90;;;4.60;;
8654;SDS011;13500;52.514;13.462;2023-03-04T05:48:52;13.50;;;4.70;;
8654;SDS011;13500;52.514;13.462;2023-03-04T05:51:20;11.17;;;3.77;;
8654;SDS011;13500;52.514;13.462;2023-03-04T05:53:49;13.13;;;4.00;;
8654;SDS011;13500;52.514;13.462;2023-03-04T05:56:18;12.97;;;3.63;;
8654;SDS011;13500;52.514;13.462;2023-03-04T05:58:46;9.10;;;3.70;;
8654;SDS011;13500;52.514;13.462;2023-03-04T06:01:14;11.57;;;4.30;;
8654;SDS011;13500;52.514;13.462;2023-03-04T06:03:43;12.07;;;4.00;;
8654;SDS011;13500;52.514;13.462;2023-03-04T06:06:13;7.83;;;3.73;;
8654;SDS011;13500;52.514;13.462;2023-03-04T06:08:41;10.60;;;3.50;;
8654;SDS011;13500;52.514;13.462;2023-03-04T06:11:10;9.80;;;3.37;;
8654;SDS011;13500;52.514;13.462;2023-03-04T06:13:38;13.23;;;3.63;;
8654;SDS011;13500;52.514;13.462;2023-03-04T06:16:06;12.87;;;3.80;;
8654;SDS011;13500;52.514;13.462;2023-03-04T06:18:34;11.10;;;3.70;;
8654;SDS011;13500;52.514;13.462;2023-03-04T06:21:02;12.17;;;3.97;;
8654;SDS011;13500;52.514;13.462;2023-03-04T06:23:31;12.80;;;4.10;;
8654;SDS011;13500;52.514;13.462;2023-03-04T06:25:59;8.97;;;3.43;;
8654;SDS011;13500;52.514;13.462;2023-03-04T06:28:28;14.07;;;4.20;;
8654;SDS011;13500;52.514;13.462;2023-03-04T06:30:56;7.87;;;3.57;;
8654;SDS011;13500;52.514;13.462;2023-03-04T06:33:24;14.17;;;4.07;;
8654;SDS011;13500;52.514;13.462;2023-03-04T06:35:53;14.23;;;4.17;;
8654;SDS011;13500;52.514;13.462;2023-03-04T06:38:21;8.60;;;3.70;;
8654;SDS011;13500;52.514;13.462;2023-03-04T06:40:49;10.80;;;3.60;;
8654;SDS011;13500;52.514;13.462;2023-03-04T06:43:17;10.10;;;3.47;;
8654;SDS011;13500;52.514;13.462;2023-03-04T06:45:49;13.00;;;3.83;;
8654;SDS011;13500;52.514;13.462;2023-03-04T06:48:17;10.93;;;4.10;;
8654;SDS011;13500;52.514;13.462;2023-03-04T06:50:45;14.53;;;3.70;;
8654;SDS011;13500;52.514;13.462;2023-03-04T06:53:12;10.60;;;3.40;;
8654;SDS011;13500;52.514;13.462;2023-03-04T06:55:40;11.13;;;3.33;;
8654;SDS011;13500;52.514;13.462;2023-03-04T06:58:08;15.47;;;3.83;;
8654;SDS011;13500;52.514;13.462;2023-03-04T07:00:36;20.17;;;6.53;;
8654;SDS011;13500;52.514;13.462;2023-03-04T07:03:05;10.83;;;3.97;;
8654;SDS011;13500;52.514;13.462;2023-03-04T07:05:33;12.63;;;4.10;;
8654;SDS011;13500;52.514;13.462;2023-03-04T07:08:01;11.37;;;4.70;;
8654;SDS011;13500;52.514;13.462;2023-03-04T07:10:29;10.33;;;3.90;;
8654;SDS011;13500;52.514;13.462;2023-03-04T07:12:57;9.73;;;4.40;;
8654;SDS011;13500;52.514;13.462;2023-03-04T07:15:24;13.73;;;4.80;;
8654;SDS011;13500;52.514;13.462;2023-03-04T07:17:52;12.63;;;4.50;;
8654;SDS011;13500;52.514;13.462;2023-03-04T07:20:22;9.60;;;4.60;;
8654;SDS011;13500;52.514;13.462;2023-03-04T07:22:50;13.10;;;4.93;;
8654;SDS011;13500;52.514;13.462;2023-03-04T07:25:17;12.27;;;5.17;;
8654;SDS011;13500;52.514;13.462;2023-03-04T07:27:45;13.07;;;5.53;;
8654;SDS011;13500;52.514;13.462;2023-03-04T07:30:13;11.90;;;5.40;;
8654;SDS011;13500;52.514;13.462;2023-03-04T07:32:41;11.20;;;5.03;;
8654;SDS011;13500;52.514;13.462;2023-03-04T07:35:09;12.43;;;4.70;;
8654;SDS011;13500;52.514;13.462;2023-03-04T07:37:39;9.50;;;5.27;;
8654;SDS011;13500;52.514;13.462;2023-03-04T07:40:07;14.13;;;4.33;;
8654;SDS011;13500;52.514;13.462;2023-03-04T07:42:36;8.03;;;3.77;;
8654;SDS011;13500;52.514;13.462;2023-03-04T07:45:09;17.00;;;4.03;;
8654;SDS011;13500;52.514;13.462;2023-03-04T07:47:38;7.30;;;3.53;;
8654;SDS011;13500;52.514;13.462;2023-03-04T07:50:07;9.77;;;3.57;;
8654;SDS011;13500;52.514;13.462;2023-03-04T07:52:36;13.60;;;3.93;;
8654;SDS011;13500;52.514;13.462;2023-03-04T07:55:06;8.20;;;3.63;;
8654;SDS011;13500;52.514;13.462;2023-03-04T07:57:35;7.57;;;3.97;;
8654;SDS011;13500;52.514;13.462;2023-03-04T08:00:05;10.20;;;4.90;;
8654;SDS011;13500;52.514;13.462;2023-03-04T08:02:37;9.77;;;5.03;;
8654;SDS011;13500;52.514;13.462;2023-03-04T08:05:05;11.30;;;4.40;;
8654;SDS011;13500;52.514;13.462;2023-03-04T08:07:34;9.17;;;3.70;;
8654;SDS011;13500;52.514;13.462;2023-03-04T08:10:03;6.63;;;3.40;;
8654;SDS011;13500;52.514;13.462;2023-03-04T08:12:33;5.77;;;3.17;;
8654;SDS011;13500;52.514;13.462;2023-03-04T08:15:01;6.70;;;2.60;;
8654;SDS011;13500;52.514;13.462;2023-03-04T08:17:29;7.27;;;2.60;;
8654;SDS011;13500;52.514;13.462;2023-03-04T08:19:57;10.53;;;2.90;;
8654;SDS011;13500;52.514;13.462;2023-03-04T08:22:26;5.20;;;2.63;;
8654;SDS011;13500;52.514;13.462;2023-03-04T08:24:55;6.50;;;2.83;;
8654;SDS011;13500;52.514;13.462;2023-03-04T08:27:26;6.73;;;2.70;;
8654;SDS011;13500;52.514;13.462;2023-03-04T08:29:56;5.40;;;2.50;;
8654;SDS011;13500;52.514;13.462;2023-03-04T08:32:25;6.10;;;2.30;;
8654;SDS011;13500;52.514;13.462;2023-03-04T08:34:55;7.50;;;2.37;;
8654;SDS011;13500;52.514;13.462;2023-03-04T08:37:24;11.17;;;3.23;;
8654;SDS011;13500;52.514;13.462;2023-03-04T08:39:52;8.60;;;3.00;;
8654;SDS011;13500;52.514;13.462;2023-03-04T08:42:24;8.10;;;2.63;;
8654;SDS011;13500;52.514;13.462;2023-03-04T08:44:54;9.07;;;2.93;;
8654;SDS011;13500;52.514;13.462;2023-03-04T08:47:23;10.60;;;2.90;;
8654;SDS011;13500;52.514;13.462;2023-03-04T08:49:53;7.87;;;3.03;;
8654;SDS011;13500;52.514;13.462;2023-03-04T08:52:22;6.93;;;3.33;;
8654;SDS011;13500;52.514;13.462;2023-03-04T08:54:51;6.07;;;2.60;;
8654;SDS011;13500;52.514;13.462;2023-03-04T08:57:20;5.93;;;2.07;;
8654;SDS011;13500;52.514;13.462;2023-03-04T08:59:50;7.43;;;2.33;;
8654;SDS011;13500;52.514;13.462;2023-03-04T09:02:19;11.23;;;2.63;;
8654;SDS011;13500;52.514;13.462;2023-03-04T09:04:49;8.87;;;2.70;;
8654;SDS011;13500;52.514;13.462;2023-03-04T09:07:18;7.93;;;2.60;;
8654;SDS011;13500;52.514;13.462;2023-03-04T09:09:46;8.37;;;2.57;;
8654;SDS011;13500;52.514;13.462;2023-03-04T09:12:15;7.80;;;2.17;;
8654;SDS011;13500;52.514;13.462;2023-03-04T09:14:44;7.73;;;2.47;;
8654;SDS011;13500;52.514;13.462;2023-03-04T09:17:29;5.03;;;2.00;;
8654;SDS011;13500;52.514;13.462;2023-03-04T09:19:58;5.50;;;1.93;;
8654;SDS011;13500;52.514;13.462;2023-03-04T09:22:30;10.03;;;2.70;;
8654;SDS011;13500;52.514;13.462;2023-03-04T09:24:59;6.67;;;2.20;;
8654;SDS011;13500;52.514;13.462;2023-03-04T09:27:28;7.70;;;2.37;;
8654;SDS011;13500;52.514;13.462;2023-03-04T09:29:57;7.93;;;2.17;;
8654;SDS011;13500;52.514;13.462;2023-03-04T09:32:26;6.90;;;2.20;;
8654;SDS011;13500;52.514;13.462;2023-03-04T09:34:56;13.23;;;2.87;;
8654;SDS011;13500;52.514;13.462;2023-03-04T09:37:26;7.17;;;1.97;;
8654;SDS011;13500;52.514;13.462;2023-03-04T09:39:55;7.03;;;1.90;;
8654;SDS011;13500;52.514;13.462;2023-03-04T09:42:24;8.40;;;2.10;;
8654;SDS011;13500;52.514;13.462;2023-03-04T09:44:56;7.43;;;2.50;;
8654;SDS011;13500;52.514;13.462;2023-03-04T09:47:25;9.27;;;2.50;;
8654;SDS011;13500;52.514;13.462;2023-03-04T09:49:55;7.30;;;1.80;;
8654;SDS011;13500;52.514;13.462;2023-03-04T09:52:29;10.30;;;2.30;;
8654;SDS011;13500;52.514;13.462;2023-03-04T09:55:11;7.37;;;2.23;;
8654;SDS011;13500;52.514;13.462;2023-03-04T09:57:46;5.73;;;2.27;;
8654;SDS011;13500;52.514;13.462;2023-03-04T10:00:17;5.47;;;2.10;;
8654;SDS011;13500;52.514;13.462;2023-03-04T10:03:04;4.63;;;2.13;;
8654;SDS011;13500;52.514;13.462;2023-03-04T10:05:50;10.07;;;2.80;;
8654;SDS011;13500;52.514;13.462;2023-03-04T10:08:33;10.90;;;2.57;;
8654;SDS011;13500;52.514;13.462;2023-03-04T10:11:05;9.67;;;3.10;;
8654;SDS011;13500;52.514;13.462;2023-03-04T10:13:38;9.00;;;2.53;;
8654;SDS011;13500;52.514;13.462;2023-03-04T10:16:08;8.00;;;2.23;;
8654;SDS011;13500;52.514;13.462;2023-03-04T10:18:40;8.93;;;2.77;;
8654;SDS011;13500;52.514;13.462;2023-03-04T10:21:13;8.50;;;2.13;;
8654;SDS011;13500;52.514;13.462;2023-03-04T10:23:43;9.30;;;2.70;;
8654;SDS011;13500;52.514;13.462;2023-03-04T10:26:13;8.03;;;2.30;;
8654;SDS011;13500;52.514;13.462;2023-03-04T10:28:42;7.53;;;2.40;;
8654;SDS011;13500;52.514;13.462;2023-03-04T10:31:11;8.67;;;2.53;;
8654;SDS011;13500;52.514;13.462;2023-03-04T10:33:43;7.87;;;2.40;;
8654;SDS011;13500;52.514;13.462;2023-03-04T10:39:04;7.20;;;2.30;;
8654;SDS011;13500;52.514;13.462;2023-03-04T10:41:34;8.07;;;2.40;;
8654;SDS011;13500;52.514;13.462;2023-03-04T10:44:03;6.67;;;2.20;;
8654;SDS011;13500;52.514;13.462;2023-03-04T10:46:32;11.00;;;2.80;;
8654;SDS011;13500;52.514;13.462;2023-03-04T10:48:59;13.53;;;2.90;;
8654;SDS011;13500;52.514;13.462;2023-03-04T10:51:28;8.37;;;2.80;;
8654;SDS011;13500;52.514;13.462;2023-03-04T10:53:58;8.50;;;2.40;;
8654;SDS011;13500;52.514;13.462;2023-03-04T10:56:30;8.73;;;3.00;;
8654;SDS011;13500;52.514;13.462;2023-03-04T11:02:14;9.00;;;2.50;;
8654;SDS011;13500;52.514;13.462;2023-03-04T11:04:54;11.43;;;3.10;;
8654;SDS011;13500;52.514;13.462;2023-03-04T11:07:24;11.63;;;2.80;;
8654;SDS011;13500;52.514;13.462;2023-03-04T11:09:54;12.50;;;2.90;;
8654;SDS011;13500;52.514;13.462;2023-03-04T11:12:31;14.77;;;3.17;;
8654;SDS011;13500;52.514;13.462;2023-03-04T11:14:59;14.27;;;3.63;;
8654;SDS011;13500;52.514;13.462;2023-03-04T11:17:28;11.77;;;3.53;;
8654;SDS011;13500;52.514;13.462;2023-03-04T11:20:08;9.93;;;3.70;;
8654;SDS011;13500;52.514;13.462;2023-03-04T11:22:54;15.00;;;3.33;;
8654;SDS011;13500;52.514;13.462;2023-03-04T11:25:26;12.17;;;3.00;;
8654;SDS011;13500;52.514;13.462;2023-03-04T11:27:56;14.20;;;3.20;;
8654;SDS011;13500;52.514;13.462;2023-03-04T11:30:28;15.37;;;3.00;;
8654;SDS011;13500;52.514;13.462;2023-03-04T11:33:07;11.83;;;3.40;;
8654;SDS011;13500;52.514;13.462;2023-03-04T11:35:41;11.10;;;3.17;;
8654;SDS011;13500;52.514;13.462;2023-03-04T11:38:14;14.63;;;3.13;;
8654;SDS011;13500;52.514;13.462;2023-03-04T11:40:47;11.50;;;3.23;;
8654;SDS011;13500;52.514;13.462;2023-03-04T11:43:18;16.17;;;3.60;;
8654;SDS011;13500;52.514;13.462;2023-03-04T11:45:59;13.73;;;3.83;;
8654;SDS011;13500;52.514;13.462;2023-03-04T11:48:37;15.47;;;3.50;;
8654;SDS011;13500;52.514;13.462;2023-03-04T11:51:12;11.97;;;3.93;;
8654;SDS011;13500;52.514;13.462;2023-03-04T11:53:49;19.37;;;4.43;;
8654;SDS011;13500;52.514;13.462;2023-03-04T11:56:33;10.17;;;3.30;;
8654;SDS011;13500;52.514;13.462;2023-03-04T12:02:13;15.00;;;3.37;;
8654;SDS011;13500;52.514;13.462;2023-03-04T12:04:47;15.07;;;3.33;;
8654;SDS011;13500;52.514;13.462;2023-03-04T12:07:35;13.97;;;3.63;;
8654;SDS011;13500;52.514;13.462;2023-03-04T12:10:14;17.90;;;4.13;;
8654;SDS011;13500;52.514;13.462;2023-03-04T12:12:58;19.27;;;4.20;;
8654;SDS011;13500;52.514;13.462;2023-03-04T12:15:32;14.97;;;3.67;;
8654;SDS011;13500;52.514;13.462;2023-03-04T12:18:08;13.13;;;3.70;;
8654;SDS011;13500;52.514;13.462;2023-03-04T12:20:46;12.00;;;3.40;;
8654;SDS011;13500;52.514;13.462;2023-03-04T12:23:27;17.47;;;3.90;;
8654;SDS011;13500;52.514;13.462;2023-03-04T12:26:02;14.53;;;3.53;;
8654;SDS011;13500;52.514;13.462;2023-03-04T12:28:39;14.90;;;3.10;;
8654;SDS011;13500;52.514;13.462;2023-03-04T12:34:18;11.40;;;3.40;;
8654;SDS011;13500;52.514;13.462;2023-03-04T12:37:14;11.67;;;3.27;;
8654;SDS011;13500;52.514;13.462;2023-03-04T12:39:59;12.33;;;3.27;;
8654;SDS011;13500;52.514;13.462;2023-03-04T12:42:46;17.90;;;3.60;;
8654;SDS011;13500;52.514;13.462;2023-03-04T12:45:24;17.27;;;3.80;;
8654;SDS011;13500;52.514;13.462;2023-03-04T12:47:57;12.30;;;3.53;;
8654;SDS011;13500;52.514;13.462;2023-03-04T12:50:31;30.10;;;11.07;;
8654;SDS011;13500;52.514;13.462;2023-03-04T12:53:07;13.80;;;3.23;;
8654;SDS011;13500;52.514;13.462;2023-03-04T12:55:39;13.73;;;3.40;;
8654;SDS011;13500;52.514;13.462;2023-03-04T12:58:12;9.90;;;3.37;;
8654;SDS011;13500;52.514;13.462;2023-03-04T13:00:46;9.03;;;2.87;;
8654;SDS011;13500;52.514;13.462;2023-03-04T13:03:20;14.43;;;2.97;;
8654;SDS011;13500;52.514;13.462;2023-03-04T13:05:54;10.67;;;3.10;;
8654;SDS011;13500;52.514;13.462;2023-03-04T13:08:32;8.73;;;2.60;;
8654;SDS011;13500;52.514;13.462;2023-03-04T13:11:31;11.90;;;2.70;;
8654;SDS011;13500;52.514;13.462;2023-03-04T13:14:21;12.97;;;2.83;;
8654;SDS011;13500;52.514;13.462;2023-03-04T13:16:54;10.87;;;2.80;;
8654;SDS011;13500;52.514;13.462;2023-03-04T13:22:28;14.50;;;3.27;;
8654;SDS011;13500;52.514;13.462;2023-03-04T13:24:57;9.20;;;2.40;;
8654;SDS011;13500;52.514;13.462;2023-03-04T13:27:45;16.83;;;3.00;;
8654;SDS011;13500;52.514;13.462;2023-03-04T13:36:31;10.70;;;2.80;;
8654;SDS011;13500;52.514;13.462;2023-03-04T13:39:30;13.73;;;3.80;;
8654;SDS011;13500;52.514;13.462;2023-03-04T13:41:59;13.40;;;3.23;;
8654;SDS011;13500;52.514;13.462;2023-03-04T13:44:54;7.77;;;2.70;;
8654;SDS011;13500;52.514;13.462;2023-03-04T13:47:26;11.30;;;3.30;;
8654;SDS011;13500;52.514;13.462;2023-03-04T13:53:21;12.13;;;3.17;;
8654;SDS011;13500;52.514;13.462;2023-03-04T13:56:17;11.30;;;3.20;;
8654;SDS011;13500;52.514;13.462;2023-03-04T13:58:52;11.87;;;3.10;;
8654;SDS011;13500;52.514;13.462;2023-03-04T14:01:31;16.67;;;3.00;;
8654;SDS011;13500;52.514;13.462;2023-03-04T14:04:00;12.20;;;3.50;;
8654;SDS011;13500;52.514;13.462;2023-03-04T14:06:31;16.53;;;3.13;;
8654;SDS011;13500;52.514;13.462;2023-03-04T14:08:59;15.37;;;3.43;;
8654;SDS011;13500;52.514;13.462;2023-03-04T14:11:39;18.73;;;3.93;;
8654;SDS011;13500;52.514;13.462;2023-03-04T14:14:09;11.90;;;3.37;;
8654;SDS011;13500;52.514;13.462;2023-03-04T14:16:45;16.03;;;3.20;;
8654;SDS011;13500;52.514;13.462;2023-03-04T14:19:15;18.37;;;3.53;;
8654;SDS011;13500;52.514;13.462;2023-03-04T14:21:46;16.03;;;3.20;;
8654;SDS011;13500;52.514;13.462;2023-03-04T14:24:15;11.40;;;3.37;;
8654;SDS011;13500;52.514;13.462;2023-03-04T14:26:44;12.67;;;2.80;;
8654;SDS011;13500;52.514;13.462;2023-03-04T14:29:22;14.07;;;3.33;;
8654;SDS011;13500;52.514;13.462;2023-03-04T14:31:52;12.07;;;2.83;;
8654;SDS011;13500;52.514;13.462;2023-03-04T14:34:23;14.13;;;4.43;;
8654;SDS011;13500;52.514;13.462;2023-03-04T14:36:52;13.67;;;4.20;;
8654;SDS011;13500;52.514;13.462;2023-03-04T14:39:20;20.13;;;4.03;;
8654;SDS011;13500;52.514;13.462;2023-03-04T14:41:50;17.70;;;3.83;;
8654;SDS011;13500;52.514;13.462;2023-03-04T14:44:22;13.60;;;2.90;;
8654;SDS011;13500;52.514;13.462;2023-03-04T14:46:54;17.23;;;4.13;;
8654;SDS011;13500;52.514;13.462;2023-03-04T14:49:33;13.43;;;3.60;;
8654;SDS011;13500;52.514;13.462;2023-03-04T14:52:02;12.63;;;3.30;;
8654;SDS011;13500;52.514;13.462;2023-03-04T14:54:34;15.53;;;3.67;;
8654;SDS011;13500;52.514;13.462;2023-03-04T14:57:21;13.00;;;3.63;;
8654;SDS011;13500;52.514;13.462;2023-03-04T14:59:52;19.03;;;4.13;;
8654;SDS011;13500;52.514;13.462;2023-03-04T15:02:24;10.97;;;3.27;;
8654;SDS011;13500;52.514;13.462;2023-03-04T15:04:57;15.73;;;3.90;;
8654;SDS011;13500;52.514;13.462;2023-03-04T15:07:30;16.83;;;3.50;;
8654;SDS011;13500;52.514;13.462;2023-03-04T15:09:59;15.83;;;3.83;;
8654;SDS011;13500;52.514;13.462;2023-03-04T15:12:30;13.43;;;4.03;;
8654;SDS011;13500;52.514;13.462;2023-03-04T15:15:00;16.17;;;4.13;;
8654;SDS011;13500;52.514;13.462;2023-03-04T15:17:32;10.70;;;3.43;;
8654;SDS011;13500;52.514;13.462;2023-03-04T15:20:18;12.93;;;3.20;;
8654;SDS011;13500;52.514;13.462;2023-03-04T15:22:55;15.57;;;4.03;;
8654;SDS011;13500;52.514;13.462;2023-03-04T15:25:24;17.50;;;4.43;;